Portada
METAR-TAF:

METAR-TAF

Aeroports :

Agra, Índia

latitud: 27-09-27N, longitud: 077-57-39E, altitud: 168 m

Observació

L'informe es va fer fa 1 hora i 43 minuts, a les 17:30 UTC
Vent 2 kt del Est
Temperatura 24°C
Humitat 83%
Pressió 1014 hPa
Visibilitat: 5000 m
Cel clar
boirina

METAR: VIAG 161730Z 09002KT 5000 BR SKC 24/21 Q1014 NOSIG

Hora: 00:43 (19:13 UTC)

Pronòstic

L'informe es va fer fa 3 hores i 43 minuts, a les 15:30 UTC
Pronòstic vàlid del 16 a les 18 UTC al 17 a les 06 UTC
Vent 2 kt amb direcció variable
Visibilitat: 6000 m
Escasses núvols a una alçada de 3000 ft
Temporalment
l' 16 a les 20 UTC al 16 a les 22 UTC
Visibilitat: 3000 m
boirina

TAF: VIAG 161530Z 1618/1706 VRB02KT 6000 FEW030 TEMPO 1620/1622 3000 BR

Observacions i pronòstics meteorològics de més de 4000 aeroports (METAR i TAF).

Les estacions disponibles són els punts grocs i vermells al mapa.

Posi el ratolí al punt desitjat per veure el nom de l'estació.

Feu clic per veure les observacions i els pronòstics meteorològics.

Per canviar el mapa: feu clic els botons verds amb una creu de color negre per apropar; al botó verd amb un guió per allunyar la imatge; o en les fletxes verdes per a mapes adjacents.


METAR-TAF: